Terminal Aerodrome Forecast
Issued by NWS Duluth, MN

Home | Current Version | Previous Version | Text Only | Print | Product List | Glossary On
Versions: 1 2 3 4 5 6 7 8 9 10 11 12 13 14 15 16 17 18 19 20 21 22 23 24 25 26 27 28 29 30 31
000
FTUS43 KDLH 281000 AAA
TAFDLH
TAF AMD
KDLH 281024Z 2810/2906 27010KT P6SM OVC008
      TEMPO 2810/2812 BKN015 OVC035
     FM281200 26010KT P6SM BKN015 OVC035
     FM281600 27014G22KT P6SM OVC020
     FM281900 28017G28KT P6SM VCSH OVC030
     FM290300 30013G20KT P6SM VCSH OVC015=

USA.gov is the U.S. government's official web portal to all federal, state and local government web resources and services.